createdAt,value
2017-11-30T00:01:09.296Z,0.70
2017-11-30T00:03:38.349Z,0.68
2017-11-30T00:06:07.208Z,0.70
2017-11-30T00:08:35.923Z,0.70
2017-11-30T00:11:04.187Z,3.10
2017-11-30T00:13:32.456Z,0.60
2017-11-30T00:16:01.476Z,1.25
2017-11-30T00:18:29.813Z,4.12
2017-11-30T00:20:58.094Z,0.70
2017-11-30T00:23:26.381Z,0.62
2017-11-30T00:25:55.034Z,0.80
2017-11-30T00:28:23.331Z,0.60
2017-11-30T00:30:51.585Z,1.02
2017-11-30T00:33:19.912Z,1.00
2017-11-30T00:35:48.177Z,0.90
2017-11-30T00:38:16.486Z,0.90
2017-11-30T00:40:44.774Z,0.90
2017-11-30T00:43:28.879Z,0.80
2017-11-30T00:45:57.140Z,0.70
2017-11-30T00:48:26.563Z,1.62
2017-11-30T00:50:54.829Z,0.70
2017-11-30T00:53:23.106Z,0.60
2017-11-30T00:55:53.069Z,0.67
2017-11-30T00:58:21.773Z,0.60
2017-11-30T01:00:50.130Z,0.70
2017-11-30T01:03:18.422Z,0.67
2017-11-30T01:05:46.984Z,0.60
2017-11-30T01:08:15.257Z,0.60
2017-11-30T01:10:43.535Z,0.80
2017-11-30T01:13:12.774Z,0.60
2017-11-30T01:15:41.036Z,0.60
2017-11-30T01:18:09.361Z,0.60
2017-11-30T01:20:37.635Z,0.77
2017-11-30T01:23:06.226Z,0.70
2017-11-30T01:25:35.242Z,0.80
2017-11-30T01:28:03.518Z,0.60
2017-11-30T01:30:45.927Z,2.37
2017-11-30T01:33:14.186Z,1.00
2017-11-30T01:35:42.509Z,0.70
2017-11-30T01:38:10.779Z,1.10
2017-11-30T01:40:41.527Z,0.60
2017-11-30T01:43:09.793Z,0.60
2017-11-30T01:45:38.101Z,0.70
2017-11-30T01:48:06.389Z,0.80
2017-11-30T01:50:34.882Z,0.80
2017-11-30T01:53:03.178Z,4.27
2017-11-30T01:55:31.457Z,0.70
2017-11-30T01:58:00.034Z,0.80
2017-11-30T02:00:29.065Z,0.80
2017-11-30T02:03:02.095Z,0.67
2017-11-30T02:05:30.395Z,0.70
2017-11-30T02:07:58.672Z,0.60
2017-11-30T02:10:26.979Z,0.70
2017-11-30T02:12:55.253Z,0.73
2017-11-30T02:15:26.269Z,0.90
2017-11-30T02:17:54.543Z,1.07
2017-11-30T02:20:23.160Z,0.60
2017-11-30T02:22:52.255Z,1.00
2017-11-30T02:25:26.820Z,0.60
2017-11-30T02:27:55.095Z,21.77
2017-11-30T02:30:23.335Z,1.07
2017-11-30T02:32:51.619Z,4.10
2017-11-30T02:35:19.919Z,1.13
2017-11-30T02:37:48.226Z,0.70
2017-11-30T02:40:18.482Z,1.63
2017-11-30T02:42:47.208Z,0.67
2017-11-30T02:45:15.486Z,0.93
2017-11-30T02:47:44.709Z,0.70
2017-11-30T02:50:13.961Z,0.60
2017-11-30T02:52:42.211Z,0.60
2017-11-30T02:55:10.492Z,0.60
2017-11-30T02:57:38.802Z,0.63
2017-11-30T03:00:07.393Z,0.70
2017-11-30T03:02:37.600Z,0.67
2017-11-30T03:05:05.867Z,0.70
2017-11-30T03:07:34.146Z,0.70
2017-11-30T03:10:02.408Z,0.60
2017-11-30T03:12:30.707Z,0.60
2017-11-30T03:14:58.962Z,0.67
2017-11-30T03:17:27.505Z,0.60
2017-11-30T03:19:55.753Z,1.03
2017-11-30T03:22:32.503Z,0.70
2017-11-30T03:25:00.762Z,1.50
2017-11-30T03:27:29.767Z,0.67
2017-11-30T03:29:58.043Z,1.33
2017-11-30T03:32:26.298Z,0.60
2017-11-30T03:34:56.201Z,0.60
2017-11-30T03:37:24.519Z,0.60
2017-11-30T03:39:53.955Z,0.60
2017-11-30T03:42:22.251Z,0.60
2017-11-30T03:44:50.499Z,2.50
2017-11-30T03:47:19.590Z,0.70
2017-11-30T03:49:47.852Z,0.60
2017-11-30T03:52:16.145Z,0.90
2017-11-30T03:54:44.393Z,1.00
2017-11-30T03:57:13.447Z,0.90
2017-11-30T03:59:41.714Z,0.90
2017-11-30T04:02:09.970Z,0.70
2017-11-30T04:04:39.046Z,2.93
2017-11-30T04:07:08.070Z,0.70
2017-11-30T04:09:36.398Z,0.97
2017-11-30T04:12:04.661Z,1.47
2017-11-30T04:14:33.259Z,4.73
2017-11-30T04:17:01.538Z,0.70
2017-11-30T04:19:29.779Z,0.70
2017-11-30T04:21:58.062Z,0.70
2017-11-30T04:24:26.326Z,0.67
2017-11-30T04:26:54.632Z,3.37
2017-11-30T04:29:22.899Z,0.80
2017-11-30T04:31:51.904Z,0.60
2017-11-30T04:34:20.168Z,0.70
2017-11-30T04:36:48.448Z,1.43
2017-11-30T04:39:16.739Z,0.70
2017-11-30T04:41:45.039Z,0.60
2017-11-30T04:44:14.350Z,0.97
2017-11-30T04:46:42.625Z,0.60
2017-11-30T04:49:10.927Z,0.70
2017-11-30T04:51:40.956Z,0.60
2017-11-30T04:54:09.242Z,0.60
2017-11-30T04:56:37.518Z,0.90
2017-11-30T04:59:05.832Z,0.77
2017-11-30T05:01:34.355Z,0.87
2017-11-30T05:04:02.611Z,0.90
2017-11-30T05:06:30.898Z,0.97
2017-11-30T05:08:59.174Z,5.90
2017-11-30T05:11:27.432Z,0.80
2017-11-30T05:13:55.723Z,0.80
2017-11-30T05:16:24.012Z,0.70
2017-11-30T05:18:53.354Z,0.70
2017-11-30T05:21:21.614Z,3.23
2017-11-30T05:23:51.545Z,0.70
2017-11-30T05:26:19.822Z,0.63
2017-11-30T05:28:48.095Z,0.60
2017-11-30T05:31:16.376Z,0.73
2017-11-30T05:33:44.637Z,0.60
2017-11-30T05:36:13.249Z,0.70
2017-11-30T05:38:41.527Z,0.70
2017-11-30T05:41:09.789Z,0.60
2017-11-30T05:43:39.065Z,0.60
2017-11-30T05:46:07.335Z,0.90
2017-11-30T05:48:43.391Z,0.70
2017-11-30T05:51:11.658Z,0.70
2017-11-30T05:53:41.983Z,2.30
2017-11-30T05:56:11.244Z,0.60
2017-11-30T05:58:47.877Z,0.77
2017-11-30T06:01:16.153Z,0.93
2017-11-30T06:03:44.427Z,0.63
2017-11-30T06:06:29.070Z,0.60
2017-11-30T06:08:59.365Z,0.60
2017-11-30T06:11:27.660Z,0.60
2017-11-30T06:14:00.376Z,0.70
2017-11-30T06:16:29.014Z,0.60
2017-11-30T06:18:57.304Z,0.63
2017-11-30T06:21:25.560Z,0.70
2017-11-30T06:23:53.857Z,0.60
2017-11-30T06:26:22.139Z,0.70
2017-11-30T06:28:50.420Z,0.70
2017-11-30T06:31:19.661Z,0.77
2017-11-30T06:33:48.199Z,0.90
2017-11-30T06:36:16.458Z,0.70
2017-11-30T06:38:44.747Z,0.60
2017-11-30T06:41:13.026Z,0.60
2017-11-30T06:43:41.303Z,1.30
2017-11-30T06:46:09.601Z,0.60
2017-11-30T06:48:38.655Z,1.20
2017-11-30T06:51:08.170Z,0.90
2017-11-30T06:53:36.441Z,2.40
2017-11-30T06:56:04.704Z,0.70
2017-11-30T06:58:32.991Z,0.67
2017-11-30T07:01:01.267Z,4.53
2017-11-30T07:03:29.562Z,0.63
2017-11-30T07:05:57.843Z,0.70
2017-11-30T07:08:26.135Z,1.00
2017-11-30T07:10:54.384Z,1.27
2017-11-30T07:13:22.924Z,0.80
2017-11-30T07:15:51.179Z,1.60
2017-11-30T07:18:20.094Z,3.90
2017-11-30T07:20:49.143Z,0.80
2017-11-30T07:23:17.411Z,0.60
2017-11-30T07:25:45.724Z,0.70
2017-11-30T07:28:13.987Z,0.90
2017-11-30T07:30:42.567Z,2.20
2017-11-30T07:33:10.844Z,0.60
2017-11-30T07:35:39.089Z,0.73
2017-11-30T07:38:07.373Z,0.70
2017-11-30T07:40:35.653Z,0.70
2017-11-30T07:43:03.931Z,0.80
2017-11-30T07:45:32.200Z,0.60
2017-11-30T07:48:00.904Z,0.70
2017-11-30T07:50:29.163Z,1.43
2017-11-30T07:52:57.421Z,0.60
2017-11-30T07:55:25.711Z,0.77
2017-11-30T07:57:53.984Z,0.70
2017-11-30T08:00:22.266Z,0.60
2017-11-30T08:02:50.524Z,0.70
2017-11-30T08:05:19.090Z,0.80
2017-11-30T08:07:47.375Z,0.60
2017-11-30T08:10:16.580Z,1.00
2017-11-30T08:12:44.870Z,2.07
2017-11-30T08:15:13.159Z,0.60
2017-11-30T08:17:41.458Z,0.70
2017-11-30T08:20:09.729Z,0.60
2017-11-30T08:22:38.333Z,2.77
2017-11-30T08:25:06.595Z,1.47
2017-11-30T08:27:34.861Z,0.77
2017-11-30T08:30:03.162Z,0.80
2017-11-30T08:32:31.414Z,1.17
2017-11-30T08:34:59.693Z,0.90
2017-11-30T08:37:27.942Z,0.80
2017-11-30T08:39:56.469Z,1.10
2017-11-30T08:42:24.720Z,1.00
2017-11-30T08:44:52.988Z,0.80
2017-11-30T08:47:21.277Z,0.90
2017-11-30T08:49:49.559Z,0.70
2017-11-30T08:52:17.879Z,0.60
2017-11-30T08:54:46.132Z,0.80
2017-11-30T08:57:14.599Z,1.73
2017-11-30T08:59:42.878Z,0.60
2017-11-30T09:02:11.486Z,0.70
2017-11-30T09:04:39.777Z,0.70
2017-11-30T09:07:08.025Z,0.90
2017-11-30T09:09:36.345Z,0.70
2017-11-30T09:12:05.400Z,0.60
2017-11-30T09:14:33.698Z,3.00
2017-11-30T09:17:01.958Z,0.63
2017-11-30T09:19:30.574Z,0.70
2017-11-30T09:21:58.804Z,0.80
2017-11-30T09:24:27.066Z,0.60
2017-11-30T09:26:55.357Z,0.70
2017-11-30T09:29:23.615Z,0.80
2017-11-30T09:31:51.962Z,1.10
2017-11-30T09:34:20.215Z,0.60
2017-11-30T09:36:48.779Z,0.67
2017-11-30T09:39:17.973Z,0.80
2017-11-30T09:41:46.225Z,0.87
2017-11-30T09:44:14.528Z,1.30
2017-11-30T09:46:42.778Z,0.70
2017-11-30T09:49:11.839Z,2.20
2017-11-30T09:51:40.083Z,0.70
2017-11-30T09:54:09.547Z,2.03
2017-11-30T09:56:38.560Z,0.80
2017-11-30T09:59:06.858Z,0.60
2017-11-30T10:01:35.140Z,1.43
2017-11-30T10:04:03.421Z,0.70
2017-11-30T10:06:31.745Z,0.70
2017-11-30T10:09:00.768Z,0.60
2017-11-30T10:11:29.383Z,0.60
2017-11-30T10:13:57.649Z,0.80
2017-11-30T10:16:25.911Z,0.60
2017-11-30T10:18:54.182Z,0.80
2017-11-30T10:21:22.441Z,1.00
2017-11-30T10:23:51.485Z,10.93
2017-11-30T10:26:19.758Z,2.40
2017-11-30T10:28:48.383Z,0.70
2017-11-30T10:31:16.610Z,0.70
2017-11-30T10:33:44.947Z,0.77
2017-11-30T10:36:16.851Z,3.43
2017-11-30T10:38:45.118Z,1.80
2017-11-30T10:41:13.642Z,0.60
2017-11-30T10:43:41.889Z,2.10
2017-11-30T10:46:10.192Z,0.93
2017-11-30T10:48:38.450Z,1.07
2017-11-30T10:51:07.164Z,0.90
2017-11-30T10:53:35.430Z,1.63
2017-11-30T10:56:03.697Z,0.70
2017-11-30T10:58:31.978Z,2.30
2017-11-30T11:01:00.246Z,1.37
2017-11-30T11:03:28.557Z,1.47
2017-11-30T11:05:56.848Z,2.20
2017-11-30T11:08:25.117Z,0.70
2017-11-30T11:10:53.394Z,1.30
2017-11-30T11:13:21.672Z,2.30
2017-11-30T11:15:49.967Z,0.70
2017-11-30T11:18:18.231Z,0.70
2017-11-30T11:20:46.492Z,0.70
2017-11-30T11:23:15.533Z,0.80
2017-11-30T11:25:44.568Z,1.10
2017-11-30T11:28:12.876Z,1.23
2017-11-30T11:30:41.140Z,2.23
2017-11-30T11:33:09.451Z,0.80
2017-11-30T11:35:37.718Z,10.63
2017-11-30T11:38:05.971Z,8.90
2017-11-30T11:40:34.296Z,10.87
2017-11-30T11:43:03.324Z,10.50
2017-11-30T11:45:31.615Z,14.03
2017-11-30T11:47:59.926Z,13.50
2017-11-30T11:50:28.190Z,8.67
2017-11-30T11:52:56.961Z,7.83
2017-11-30T11:55:25.217Z,8.73
2017-11-30T12:00:25.929Z,7.97
2017-11-30T12:02:54.203Z,9.77
2017-11-30T12:05:22.483Z,18.00
2017-11-30T12:07:50.784Z,9.20
2017-11-30T12:10:19.062Z,10.33
2017-11-30T12:12:47.325Z,10.33
2017-11-30T12:15:15.634Z,10.80
2017-11-30T12:17:43.895Z,10.83
2017-11-30T12:20:12.213Z,7.87
2017-11-30T12:22:40.490Z,10.97
2017-11-30T12:25:08.766Z,10.93
2017-11-30T12:27:37.049Z,6.57
2017-11-30T12:30:05.410Z,10.17
2017-11-30T12:32:33.739Z,17.30
2017-11-30T12:35:01.998Z,9.37
2017-11-30T12:37:30.270Z,8.10
2017-11-30T12:39:58.583Z,8.23
2017-11-30T12:42:27.624Z,7.63
2017-11-30T12:44:55.899Z,8.57
2017-11-30T12:47:24.262Z,7.77
2017-11-30T12:49:52.538Z,11.73
2017-11-30T12:52:20.852Z,9.50
2017-11-30T12:54:49.134Z,7.73
2017-11-30T12:57:17.421Z,14.37
2017-11-30T12:59:45.716Z,7.07
2017-11-30T13:02:14.015Z,7.63
2017-11-30T13:04:42.320Z,8.20
2017-11-30T13:07:10.589Z,6.63
2017-11-30T13:09:38.865Z,4.77
2017-11-30T13:12:07.150Z,6.07
2017-11-30T13:14:35.436Z,6.47
2017-11-30T13:17:03.715Z,7.67
2017-11-30T13:19:32.001Z,5.77
2017-11-30T13:22:00.300Z,8.83
2017-11-30T13:24:28.570Z,6.90
2017-11-30T13:26:56.838Z,7.97
2017-11-30T13:29:25.179Z,5.80
2017-11-30T13:31:53.462Z,4.87
2017-11-30T13:34:21.718Z,6.93
2017-11-30T13:36:50.009Z,5.30
2017-11-30T13:39:18.814Z,5.47
2017-11-30T13:41:47.158Z,5.23
2017-11-30T13:44:15.438Z,8.23
2017-11-30T13:46:43.722Z,11.00
2017-11-30T13:49:12.028Z,6.43
2017-11-30T13:51:40.305Z,12.03
2017-11-30T13:54:08.588Z,9.17
2017-11-30T13:56:36.891Z,7.07
2017-11-30T13:59:05.167Z,9.40
2017-11-30T14:01:33.450Z,13.77
2017-11-30T14:04:01.717Z,6.70
2017-11-30T14:06:30.844Z,10.17
2017-11-30T14:08:59.908Z,10.67
2017-11-30T14:11:28.224Z,16.00
2017-11-30T14:13:57.245Z,10.40
2017-11-30T14:16:25.595Z,12.93
2017-11-30T14:18:54.584Z,21.03
2017-11-30T14:21:22.906Z,12.77
2017-11-30T14:23:51.186Z,19.77
2017-11-30T14:26:19.484Z,8.63
2017-11-30T14:28:47.793Z,7.57
2017-11-30T14:31:16.060Z,6.23
2017-11-30T14:33:45.462Z,1.00
2017-11-30T14:36:14.523Z,2.40
2017-11-30T14:38:42.793Z,0.80
2017-11-30T14:41:11.093Z,0.70
2017-11-30T14:43:39.364Z,0.70
2017-11-30T14:46:07.682Z,0.70
2017-11-30T14:48:35.958Z,0.70
2017-11-30T14:51:04.287Z,2.70
2017-11-30T14:53:32.577Z,1.27
2017-11-30T14:56:00.852Z,0.80
2017-11-30T14:58:29.158Z,0.60
2017-11-30T15:00:57.425Z,0.70
2017-11-30T15:03:25.721Z,0.70
2017-11-30T15:05:54.024Z,0.90
2017-11-30T15:08:22.312Z,0.80
2017-11-30T15:10:50.602Z,0.70
2017-11-30T15:13:19.790Z,0.77
2017-11-30T15:15:48.829Z,0.73
2017-11-30T15:18:17.101Z,1.07
2017-11-30T15:20:45.377Z,0.70
2017-11-30T15:23:15.912Z,0.60
2017-11-30T15:25:44.188Z,0.80
2017-11-30T15:28:12.477Z,0.60
2017-11-30T15:30:40.747Z,0.70
2017-11-30T15:33:09.024Z,0.60
2017-11-30T15:35:37.295Z,0.67
2017-11-30T15:38:05.581Z,0.73
2017-11-30T15:40:33.844Z,0.60
2017-11-30T15:43:02.141Z,0.70
2017-11-30T15:45:30.397Z,0.70
2017-11-30T15:47:58.695Z,1.83
2017-11-30T15:50:26.953Z,0.70
2017-11-30T15:52:55.239Z,1.10
2017-11-30T15:55:23.504Z,0.90
2017-11-30T15:57:51.793Z,0.60
2017-11-30T16:00:20.057Z,0.77
2017-11-30T16:02:48.377Z,0.70
2017-11-30T16:05:16.622Z,3.60
2017-11-30T16:07:44.901Z,0.80
2017-11-30T16:10:13.200Z,0.77
2017-11-30T16:12:43.742Z,0.80
2017-11-30T16:15:11.989Z,0.60
2017-11-30T16:17:40.305Z,0.67
2017-11-30T16:20:08.568Z,0.60
2017-11-30T16:22:36.898Z,0.90
2017-11-30T16:25:05.286Z,0.63
2017-11-30T16:27:33.600Z,0.73
2017-11-30T16:30:03.034Z,2.00
2017-11-30T16:32:31.405Z,0.80
2017-11-30T16:34:59.649Z,0.60
2017-11-30T16:37:27.951Z,0.70
2017-11-30T16:39:56.308Z,0.70
2017-11-30T16:42:24.639Z,1.73
2017-11-30T16:44:52.865Z,3.03
2017-11-30T16:47:21.197Z,0.60
2017-11-30T16:49:49.548Z,0.73
2017-11-30T16:52:18.657Z,2.90
2017-11-30T16:54:48.547Z,1.17
2017-11-30T16:57:16.830Z,0.80
2017-11-30T16:59:45.129Z,0.87
2017-11-30T17:02:14.181Z,1.73
2017-11-30T17:04:42.490Z,1.33
2017-11-30T17:07:11.510Z,1.30
2017-11-30T17:09:39.873Z,0.70
2017-11-30T17:12:08.915Z,1.53
2017-11-30T17:14:37.225Z,1.70
2017-11-30T17:17:05.604Z,1.00
2017-11-30T17:21:51.798Z,1.10
2017-11-30T17:24:20.738Z,1.10
2017-11-30T17:26:49.760Z,2.00
2017-11-30T17:29:18.041Z,1.20
2017-11-30T17:31:46.294Z,0.80
2017-11-30T17:34:14.610Z,0.80
2017-11-30T17:36:42.900Z,0.70
2017-11-30T17:39:11.225Z,0.80
2017-11-30T17:41:39.502Z,2.30
2017-11-30T17:44:08.554Z,0.70
2017-11-30T17:46:36.863Z,1.53
2017-11-30T17:49:05.949Z,0.80
2017-11-30T17:51:34.247Z,1.60
2017-11-30T17:54:03.313Z,0.60
2017-11-30T17:56:31.607Z,0.70
2017-11-30T17:58:59.917Z,0.80
2017-11-30T18:01:28.195Z,0.60
2017-11-30T18:03:56.510Z,1.17
2017-11-30T18:06:24.850Z,0.70
2017-11-30T18:08:53.143Z,0.70
2017-11-30T18:11:21.389Z,0.70
2017-11-30T18:13:50.454Z,1.70
2017-11-30T18:16:18.837Z,1.00
2017-11-30T18:18:47.150Z,2.30
2017-11-30T18:21:15.548Z,0.97
2017-11-30T18:23:45.835Z,0.80
2017-11-30T18:26:14.135Z,1.20
2017-11-30T18:28:42.490Z,1.17
2017-11-30T18:31:10.893Z,1.00
2017-11-30T18:33:39.146Z,2.57
2017-11-30T18:36:08.266Z,4.30
2017-11-30T18:38:37.302Z,9.37
2017-11-30T18:41:06.393Z,0.90
2017-11-30T18:43:34.691Z,0.80
2017-11-30T18:46:03.017Z,0.70
2017-11-30T18:48:31.316Z,1.07
2017-11-30T18:50:59.799Z,0.90
2017-11-30T18:53:28.795Z,1.20
2017-11-30T18:55:58.845Z,1.27
2017-11-30T18:58:28.371Z,1.40
2017-11-30T19:00:57.590Z,0.90
2017-11-30T19:03:25.867Z,2.23
2017-11-30T19:05:57.419Z,1.37
2017-11-30T19:08:27.348Z,11.37
2017-11-30T19:10:55.754Z,0.90
2017-11-30T19:13:24.734Z,1.00
2017-11-30T19:15:53.060Z,0.90
2017-11-30T19:18:21.771Z,2.50
2017-11-30T19:20:50.911Z,1.27
2017-11-30T19:23:20.297Z,1.07
2017-11-30T19:25:48.670Z,1.00
2017-11-30T19:28:17.148Z,2.27
2017-11-30T19:30:48.429Z,1.07
2017-11-30T19:33:17.712Z,1.23
2017-11-30T19:35:46.044Z,1.93
2017-11-30T19:38:14.378Z,0.70
2017-11-30T19:40:42.682Z,1.40
2017-11-30T19:43:11.008Z,2.77
2017-11-30T19:45:40.071Z,0.70
2017-11-30T19:48:08.412Z,0.70
2017-11-30T19:50:36.752Z,0.60
2017-11-30T19:53:05.143Z,0.70
2017-11-30T19:55:33.466Z,0.60
2017-11-30T19:58:01.887Z,0.70
2017-11-30T20:00:30.290Z,0.70
2017-11-30T20:02:58.578Z,0.80
2017-11-30T20:05:27.809Z,2.90
2017-11-30T20:07:56.164Z,0.70
2017-11-30T20:10:25.537Z,0.90
2017-11-30T20:12:55.389Z,0.67
2017-11-30T20:15:23.896Z,0.60
2017-11-30T20:17:53.118Z,0.80
2017-11-30T20:20:21.509Z,0.70
2017-11-30T20:22:50.021Z,0.80
2017-11-30T20:25:18.450Z,1.73
2017-11-30T20:27:47.564Z,0.70
2017-11-30T20:30:15.986Z,0.70
2017-11-30T20:32:44.318Z,0.70
2017-11-30T20:35:12.794Z,0.77
2017-11-30T20:37:42.019Z,0.63
2017-11-30T20:40:11.137Z,0.70
2017-11-30T20:42:39.514Z,0.70
2017-11-30T20:45:11.294Z,0.83
2017-11-30T20:47:40.527Z,1.80
2017-11-30T20:50:15.933Z,0.70
2017-11-30T20:52:46.063Z,0.60
2017-11-30T20:55:17.076Z,0.70
2017-11-30T20:57:45.653Z,16.48
2017-11-30T21:00:14.037Z,0.70
2017-11-30T21:02:42.584Z,0.70
2017-11-30T21:05:11.740Z,0.83
2017-11-30T21:07:40.038Z,0.70
2017-11-30T21:10:08.365Z,0.60
2017-11-30T21:12:36.676Z,0.70
2017-11-30T21:15:05.156Z,1.10
2017-11-30T21:17:33.841Z,0.70
2017-11-30T21:20:02.318Z,0.73
2017-11-30T21:22:30.668Z,0.60
2017-11-30T21:25:00.012Z,0.70
2017-11-30T21:27:28.430Z,0.70
2017-11-30T21:29:57.497Z,0.60
2017-11-30T21:32:25.841Z,0.70
2017-11-30T21:34:54.099Z,0.80
2017-11-30T21:37:23.187Z,0.80
2017-11-30T21:39:52.240Z,0.70
2017-11-30T21:42:20.555Z,0.82
2017-11-30T21:44:48.961Z,0.70
2017-11-30T21:47:17.305Z,0.95
2017-11-30T21:49:45.600Z,1.45
2017-11-30T21:52:13.875Z,1.45
2017-11-30T21:54:47.910Z,3.60
2017-11-30T21:57:16.972Z,2.08
2017-11-30T21:59:45.248Z,1.08
2017-11-30T22:02:13.552Z,2.67
2017-11-30T22:04:42.613Z,0.90
2017-11-30T22:07:10.939Z,0.70
2017-11-30T22:09:39.999Z,0.70
2017-11-30T22:12:13.868Z,1.90
2017-11-30T22:14:42.136Z,1.55
2017-11-30T22:17:10.427Z,0.70
2017-11-30T22:19:38.778Z,0.70
2017-11-30T22:22:07.079Z,0.70
2017-11-30T22:24:35.397Z,7.43
2017-11-30T22:27:03.957Z,0.70
2017-11-30T22:29:32.208Z,0.70
2017-11-30T22:32:01.422Z,1.62
2017-11-30T22:34:29.720Z,0.70
2017-11-30T22:36:58.110Z,0.60
2017-11-30T22:39:26.361Z,0.65
2017-11-30T22:41:54.672Z,0.75
2017-11-30T22:44:22.958Z,0.60
2017-11-30T22:46:52.044Z,1.45
2017-11-30T22:49:21.223Z,0.70
2017-11-30T22:51:49.526Z,0.68
2017-11-30T22:54:17.816Z,0.70
2017-11-30T22:56:46.098Z,0.70
2017-11-30T22:59:15.157Z,0.70
2017-11-30T23:01:43.427Z,1.05
2017-11-30T23:04:11.757Z,22.73
2017-11-30T23:06:40.800Z,0.90
2017-11-30T23:09:09.102Z,0.60
2017-11-30T23:11:37.534Z,4.47
2017-11-30T23:14:06.802Z,0.70
2017-11-30T23:16:35.115Z,0.85
2017-11-30T23:19:03.497Z,0.60
2017-11-30T23:21:32.654Z,0.70
2017-11-30T23:24:01.738Z,0.80
2017-11-30T23:26:30.063Z,0.82
2017-11-30T23:28:58.450Z,0.60
2017-11-30T23:31:26.697Z,0.70
2017-11-30T23:33:54.985Z,1.95
2017-11-30T23:36:23.298Z,0.60
2017-11-30T23:38:51.657Z,0.70
2017-11-30T23:41:19.989Z,1.20
2017-11-30T23:43:48.501Z,1.15
2017-11-30T23:46:16.816Z,0.70
2017-11-30T23:48:45.190Z,1.00
2017-11-30T23:51:16.791Z,0.80
2017-11-30T23:53:45.110Z,0.70
2017-11-30T23:56:14.156Z,1.25
2017-11-30T23:58:42.432Z,0.80
